Time;durP1;ratioP1;P1;durP2;ratioP2;P2;SDS_P1;SDS_P2;PMS_P1;PMS_P2;Temp;Humidity;BMP_temperature;BMP_pressure;BME280_temperature;BME280_humidity;BME280_pressure;Samples;Min_cycle;Max_cycle;Signal;HPM_P1;HPM_P2
2022/08/24 00:00:53;;;;;;;20.13;12.43;;;;;;;;;;738593;188;732190;-86
2022/08/24 00:03:20;;;;;;;18.57;13.43;;;;;;;;;;744442;187;633097;-86
2022/08/24 00:05:46;;;;;;;18.70;12.10;;;;;;;;;;746362;187;617243;-86
2022/08/24 00:08:11;;;;;;;17.33;12.90;;;;;;;;;;743323;187;640613;-86
2022/08/24 00:10:38;;;;;;;18.97;13.00;;;;;;;;;;741913;188;645208;-86
2022/08/24 00:13:03;;;;;;;23.53;13.77;;;;;;;;;;740284;189;625556;-86
2022/08/24 00:15:29;;;;;;;16.10;12.97;;;;;;;;;;743055;188;637344;-86
2022/08/24 00:17:55;;;;;;;18.37;13.00;;;;;;;;;;716379;195;632504;-86
2022/08/24 00:20:21;;;;;;;24.53;13.30;;;;;;;;;;720053;195;631897;-86
2022/08/24 00:22:46;;;;;;;19.70;14.23;;;;;;;;;;749581;188;624041;-86
2022/08/24 00:25:12;;;;;;;18.53;13.57;;;;;;;;;;738836;188;622187;-86
2022/08/24 00:27:38;;;;;;;20.73;14.57;;;;;;;;;;739411;188;673467;-87
2022/08/24 00:30:04;;;;;;;21.17;14.03;;;;;;;;;;746475;188;631530;-87
2022/08/24 00:32:30;;;;;;;21.23;14.73;;;;;;;;;;742774;187;638027;-87
2022/08/24 00:34:56;;;;;;;19.83;14.13;;;;;;;;;;746468;188;629409;-86
2022/08/24 00:37:22;;;;;;;19.70;14.20;;;;;;;;;;748768;185;627202;-85
2022/08/24 00:39:48;;;;;;;21.83;14.07;;;;;;;;;;742759;188;630659;-86
2022/08/24 00:42:13;;;;;;;22.83;15.40;;;;;;;;;;740344;188;646157;-87
2022/08/24 00:44:39;;;;;;;16.10;12.83;;;;;;;;;;742783;188;624236;-87
2022/08/24 00:47:05;;;;;;;27.87;15.60;;;;;;;;;;742761;187;615185;-86
2022/08/24 00:49:31;;;;;;;20.00;13.70;;;;;;;;;;739449;188;657621;-87
2022/08/24 00:52:04;;;;;;;19.73;14.23;;;;;;;;;;744487;187;636451;-86
2022/08/24 00:54:29;;;;;;;20.13;14.40;;;;;;;;;;746404;187;625679;-86
2022/08/24 00:56:55;;;;;;;21.10;13.90;;;;;;;;;;744534;187;624855;-87
2022/08/24 00:59:21;;;;;;;21.40;14.70;;;;;;;;;;740401;187;635884;-86
2022/08/24 01:01:47;;;;;;;21.60;13.40;;;;;;;;;;744674;187;626822;-86
2022/08/24 01:04:14;;;;;;;15.90;13.17;;;;;;;;;;746570;187;630652;-86
2022/08/24 01:06:39;;;;;;;21.20;14.77;;;;;;;;;;736612;189;643053;-87
2022/08/24 01:09:05;;;;;;;18.90;14.00;;;;;;;;;;737443;188;624170;-86
2022/08/24 01:11:31;;;;;;;24.10;13.33;;;;;;;;;;742909;187;643697;-86
2022/08/24 01:13:56;;;;;;;21.00;13.50;;;;;;;;;;741481;188;625480;-86
2022/08/24 01:18:54;;;;;;;20.60;12.97;;;;;;;;;;743176;188;636801;-86
2022/08/24 01:21:20;;;;;;;25.40;14.47;;;;;;;;;;745999;188;665824;-87
2022/08/24 01:23:48;;;;;;;26.40;14.50;;;;;;;;;;740224;187;633664;-86
2022/08/24 01:26:17;;;;;;;24.50;17.40;;;;;;;;;;741341;187;638329;-86
2022/08/24 01:28:41;;;;;;;26.40;16.70;;;;;;;;;;745773;188;640951;-86
2022/08/24 01:31:06;;;;;;;24.20;15.30;;;;;;;;;;737081;187;653092;-87
2022/08/24 01:33:33;;;;;;;20.30;14.50;;;;;;;;;;717820;194;614292;-86
2022/08/24 01:36:00;;;;;;;21.07;14.43;;;;;;;;;;742207;188;671813;-86
2022/08/24 01:38:26;;;;;;;22.60;14.30;;;;;;;;;;745519;188;622222;-87
2022/08/24 01:40:51;;;;;;;27.87;16.40;;;;;;;;;;741476;188;630707;-87
2022/08/24 01:43:17;;;;;;;23.57;17.00;;;;;;;;;;745699;187;642808;-86
2022/08/24 01:45:43;;;;;;;23.63;15.77;;;;;;;;;;747322;187;651997;-87
2022/08/24 01:48:09;;;;;;;23.17;16.63;;;;;;;;;;736959;189;631120;-87
2022/08/24 01:50:35;;;;;;;20.08;15.82;;;;;;;;;;749796;186;633402;-86
2022/08/24 01:53:01;;;;;;;19.70;14.63;;;;;;;;;;744104;187;625855;-87
2022/08/24 01:55:27;;;;;;;23.60;15.40;;;;;;;;;;717264;194;625091;-86
2022/08/24 01:57:52;;;;;;;17.87;14.40;;;;;;;;;;743666;187;648780;-87
2022/08/24 02:00:18;;;;;;;18.60;14.30;;;;;;;;;;743900;187;651108;-86
2022/08/24 02:02:44;;;;;;;23.10;16.63;;;;;;;;;;750545;185;640974;-86
2022/08/24 02:05:10;;;;;;;26.63;16.23;;;;;;;;;;749535;187;619848;-87
2022/08/24 02:07:36;;;;;;;25.43;17.63;;;;;;;;;;744554;187;635370;-87
2022/08/24 02:10:02;;;;;;;26.00;18.10;;;;;;;;;;746971;188;622594;-85
2022/08/24 02:12:28;;;;;;;23.83;17.30;;;;;;;;;;741883;187;613845;-86
2022/08/24 02:14:53;;;;;;;25.00;16.20;;;;;;;;;;745057;187;656077;-86
2022/08/24 02:17:20;;;;;;;27.97;16.27;;;;;;;;;;749499;187;624642;-86
2022/08/24 02:19:45;;;;;;;22.43;14.53;;;;;;;;;;741695;188;624269;-85
2022/08/24 02:22:11;;;;;;;23.63;16.87;;;;;;;;;;743144;188;628549;-85
2022/08/24 02:24:37;;;;;;;19.97;15.00;;;;;;;;;;744997;189;622532;-85
2022/08/24 02:27:04;;;;;;;33.70;18.30;;;;;;;;;;745042;188;628678;-86
2022/08/24 02:29:29;;;;;;;25.13;16.17;;;;;;;;;;738653;187;625356;-86
2022/08/24 02:31:56;;;;;;;24.17;16.60;;;;;;;;;;739556;188;652455;-85
2022/08/24 02:34:21;;;;;;;23.60;15.60;;;;;;;;;;743368;188;619755;-86
2022/08/24 02:36:46;;;;;;;24.40;16.00;;;;;;;;;;746938;187;644090;-85
2022/08/24 02:39:12;;;;;;;30.70;16.43;;;;;;;;;;739563;188;816414;-85
2022/08/24 02:41:38;;;;;;;23.60;16.07;;;;;;;;;;744641;187;629274;-85
2022/08/24 02:44:04;;;;;;;26.00;16.83;;;;;;;;;;745649;187;627288;-85
2022/08/24 02:46:30;;;;;;;27.17;17.47;;;;;;;;;;745806;188;633233;-85
2022/08/24 02:48:57;;;;;;;28.30;17.27;;;;;;;;;;747585;188;616357;-86
2022/08/24 02:51:22;;;;;;;29.10;17.67;;;;;;;;;;742962;187;712163;-85
2022/08/24 02:53:48;;;;;;;34.23;21.37;;;;;;;;;;740570;188;744133;-85
2022/08/24 02:56:13;;;;;;;28.10;19.13;;;;;;;;;;739363;187;625314;-85
2022/08/24 02:58:39;;;;;;;33.13;20.97;;;;;;;;;;746099;187;630287;-85
2022/08/24 03:01:05;;;;;;;36.17;20.90;;;;;;;;;;740513;186;661536;-85
2022/08/24 03:03:31;;;;;;;30.70;19.27;;;;;;;;;;745927;187;630786;-85
2022/08/24 03:05:57;;;;;;;34.90;23.20;;;;;;;;;;748184;187;713234;-86
2022/08/24 03:08:23;;;;;;;36.43;23.13;;;;;;;;;;741736;187;626667;-86
2022/08/24 03:10:49;;;;;;;34.10;20.77;;;;;;;;;;746500;187;674445;-86
2022/08/24 03:13:16;;;;;;;39.60;21.57;;;;;;;;;;747136;187;656993;-87
2022/08/24 03:15:41;;;;;;;38.97;24.47;;;;;;;;;;744340;187;634127;-86
2022/08/24 03:18:07;;;;;;;44.80;23.90;;;;;;;;;;741365;187;632996;-87
2022/08/24 03:20:32;;;;;;;42.90;23.20;;;;;;;;;;737102;188;948924;-84
2022/08/24 03:22:58;;;;;;;41.03;21.43;;;;;;;;;;736642;189;634506;-84
2022/08/24 03:25:26;;;;;;;42.53;23.67;;;;;;;;;;739315;188;635271;-85
2022/08/24 03:27:50;;;;;;;43.57;23.47;;;;;;;;;;738066;188;631450;-84
2022/08/24 03:30:16;;;;;;;46.50;23.03;;;;;;;;;;746730;188;612950;-85
2022/08/24 03:32:42;;;;;;;44.60;23.80;;;;;;;;;;741024;187;652408;-86
2022/08/24 03:35:08;;;;;;;50.80;24.53;;;;;;;;;;744673;187;633176;-84
2022/08/24 03:37:34;;;;;;;47.97;24.40;;;;;;;;;;743014;188;621723;-87
2022/08/24 03:40:00;;;;;;;43.73;24.37;;;;;;;;;;716582;195;630212;-84
2022/08/24 03:42:25;;;;;;;58.60;27.60;;;;;;;;;;719898;194;614573;-85
2022/08/24 03:44:51;;;;;;;48.23;24.83;;;;;;;;;;740155;188;655870;-84
2022/08/24 03:47:20;;;;;;;47.37;25.53;;;;;;;;;;746825;185;705971;-85
2022/08/24 03:49:43;;;;;;;48.83;26.50;;;;;;;;;;739740;188;629120;-86
2022/08/24 03:52:09;;;;;;;46.33;26.53;;;;;;;;;;738377;188;826420;-85
2022/08/24 03:54:35;;;;;;;46.27;24.30;;;;;;;;;;743173;188;633525;-85
2022/08/24 03:57:01;;;;;;;51.53;24.83;;;;;;;;;;743227;187;617149;-85
2022/08/24 03:59:27;;;;;;;58.70;29.10;;;;;;;;;;737506;187;712230;-87
2022/08/24 04:01:54;;;;;;;55.83;27.50;;;;;;;;;;744272;187;623237;-87
2022/08/24 04:04:18;;;;;;;63.00;28.07;;;;;;;;;;736483;187;658420;-85
2022/08/24 04:06:45;;;;;;;46.33;27.63;;;;;;;;;;738979;188;916445;-85
2022/08/24 04:09:10;;;;;;;53.13;26.90;;;;;;;;;;744276;188;624399;-87
2022/08/24 04:11:36;;;;;;;57.60;30.07;;;;;;;;;;743139;187;725543;-87
2022/08/24 04:14:02;;;;;;;59.33;26.13;;;;;;;;;;745550;187;634615;-86
2022/08/24 04:16:28;;;;;;;61.53;28.90;;;;;;;;;;742797;187;842664;-88
2022/08/24 04:18:53;;;;;;;52.67;27.07;;;;;;;;;;749679;187;614160;-86
2022/08/24 04:21:19;;;;;;;57.90;26.83;;;;;;;;;;743279;187;711951;-86
2022/08/24 04:23:45;;;;;;;62.67;29.20;;;;;;;;;;744561;187;675302;-86
2022/08/24 04:26:11;;;;;;;63.00;30.37;;;;;;;;;;748473;187;625453;-85
2022/08/24 04:28:37;;;;;;;64.40;28.10;;;;;;;;;;738492;187;756453;-83
2022/08/24 04:31:03;;;;;;;64.67;29.60;;;;;;;;;;742464;187;677603;-84
2022/08/24 04:33:30;;;;;;;55.87;28.80;;;;;;;;;;747450;187;626701;-84
2022/08/24 04:35:55;;;;;;;76.23;31.90;;;;;;;;;;743887;186;703791;-86
2022/08/24 04:38:20;;;;;;;67.70;29.87;;;;;;;;;;743688;187;628242;-84
2022/08/24 04:40:47;;;;;;;63.17;28.93;;;;;;;;;;744322;187;683548;-85
2022/08/24 04:43:13;;;;;;;67.47;29.10;;;;;;;;;;739919;187;715668;-86
2022/08/24 04:45:38;;;;;;;63.53;27.97;;;;;;;;;;740227;188;627098;-85
2022/08/24 04:48:04;;;;;;;84.87;31.03;;;;;;;;;;738239;187;725694;-86
2022/08/24 04:50:30;;;;;;;78.23;30.33;;;;;;;;;;746675;188;647350;-85
2022/08/24 04:52:56;;;;;;;63.93;28.50;;;;;;;;;;744614;188;633178;-86
2022/08/24 04:55:21;;;;;;;63.13;28.53;;;;;;;;;;739598;187;713533;-85
2022/08/24 04:57:47;;;;;;;63.90;30.13;;;;;;;;;;743047;188;646326;-85
2022/08/24 05:00:13;;;;;;;63.73;29.70;;;;;;;;;;717385;195;634357;-85
2022/08/24 05:02:39;;;;;;;66.90;28.10;;;;;;;;;;716257;195;634917;-86
2022/08/24 05:05:05;;;;;;;66.10;28.37;;;;;;;;;;742507;188;637578;-85
2022/08/24 05:07:31;;;;;;;64.17;29.10;;;;;;;;;;738135;188;635109;-83
2022/08/24 05:09:57;;;;;;;58.70;27.53;;;;;;;;;;741528;187;624410;-86
2022/08/24 05:12:23;;;;;;;62.93;28.70;;;;;;;;;;744055;187;629591;-85
2022/08/24 05:14:49;;;;;;;64.77;28.77;;;;;;;;;;744217;188;631889;-85
2022/08/24 05:17:14;;;;;;;53.17;27.30;;;;;;;;;;716706;195;639479;-88
2022/08/24 05:19:40;;;;;;;54.63;25.77;;;;;;;;;;740606;188;625302;-86
2022/08/24 05:22:06;;;;;;;65.30;28.33;;;;;;;;;;744189;187;639418;-86
2022/08/24 05:24:32;;;;;;;55.93;27.87;;;;;;;;;;741597;186;729275;-87
2022/08/24 05:26:59;;;;;;;55.27;27.53;;;;;;;;;;745433;186;715250;-85
2022/08/24 05:29:24;;;;;;;54.80;26.50;;;;;;;;;;748343;188;643783;-85
2022/08/24 05:31:50;;;;;;;57.87;27.07;;;;;;;;;;742308;188;625482;-87
2022/08/24 05:34:16;;;;;;;50.50;28.67;;;;;;;;;;746977;187;628103;-86
2022/08/24 05:36:41;;;;;;;52.23;27.20;;;;;;;;;;740185;188;681286;-87
2022/08/24 05:39:08;;;;;;;43.23;24.10;;;;;;;;;;746240;187;698225;-85
2022/08/24 05:41:34;;;;;;;63.60;25.93;;;;;;;;;;719099;194;628259;-86
2022/08/24 05:43:59;;;;;;;49.03;26.07;;;;;;;;;;735228;191;623949;-87
2022/08/24 05:46:25;;;;;;;48.97;24.60;;;;;;;;;;740056;188;615445;-87
2022/08/24 05:48:51;;;;;;;55.27;27.70;;;;;;;;;;745346;186;639059;-91
2022/08/24 05:51:17;;;;;;;47.93;23.80;;;;;;;;;;741981;188;630230;-86
2022/08/24 05:53:43;;;;;;;49.50;26.17;;;;;;;;;;746961;187;624769;-85
2022/08/24 05:56:09;;;;;;;50.70;24.47;;;;;;;;;;737941;188;807347;-86
2022/08/24 05:58:34;;;;;;;48.60;24.20;;;;;;;;;;740705;187;640443;-86
2022/08/24 06:01:04;;;;;;;53.10;26.90;;;;;;;;;;743188;188;617894;-86
2022/08/24 06:03:30;;;;;;;52.03;25.67;;;;;;;;;;745268;188;623975;-86
2022/08/24 06:05:56;;;;;;;46.13;24.87;;;;;;;;;;743204;187;657798;-85
2022/08/24 06:08:22;;;;;;;44.53;23.33;;;;;;;;;;742899;188;668807;-87
2022/08/24 06:10:48;;;;;;;52.40;23.70;;;;;;;;;;745516;188;666979;-88
2022/08/24 06:13:14;;;;;;;49.47;25.10;;;;;;;;;;741894;187;632901;-87
2022/08/24 06:15:40;;;;;;;47.07;25.13;;;;;;;;;;740435;187;625221;-88
2022/08/24 06:18:06;;;;;;;53.63;26.65;;;;;;;;;;739240;187;636248;-86
2022/08/24 06:20:32;;;;;;;51.30;27.10;;;;;;;;;;737812;188;880929;-86
2022/08/24 06:22:58;;;;;;;51.70;24.77;;;;;;;;;;739677;187;930326;-88
2022/08/24 06:27:56;;;;;;;45.90;23.33;;;;;;;;;;746252;187;773947;-88
2022/08/24 06:30:22;;;;;;;45.57;23.40;;;;;;;;;;737747;187;929940;-88
2022/08/24 06:32:48;;;;;;;48.80;23.20;;;;;;;;;;745683;187;630089;-88
2022/08/24 06:35:14;;;;;;;44.00;23.23;;;;;;;;;;739225;187;641105;-86
2022/08/24 06:37:40;;;;;;;56.20;27.70;;;;;;;;;;751220;187;633391;-88
2022/08/24 06:40:06;;;;;;;51.10;25.10;;;;;;;;;;744114;187;717489;-87
2022/08/24 06:42:33;;;;;;;48.57;24.83;;;;;;;;;;740847;188;629131;-88
2022/08/24 06:44:58;;;;;;;43.43;24.93;;;;;;;;;;744815;187;622973;-87
2022/08/24 06:47:23;;;;;;;44.10;24.50;;;;;;;;;;718963;193;648261;-88
2022/08/24 06:49:49;;;;;;;43.10;24.23;;;;;;;;;;741053;187;675444;-86
2022/08/24 06:52:15;;;;;;;39.90;22.40;;;;;;;;;;749017;187;773109;-88
2022/08/24 06:54:41;;;;;;;41.43;22.83;;;;;;;;;;741651;187;789851;-88
2022/08/24 06:57:07;;;;;;;38.33;22.23;;;;;;;;;;745668;187;646554;-87
2022/08/24 06:59:33;;;;;;;37.93;21.80;;;;;;;;;;744059;187;637287;-83
2022/08/24 07:01:59;;;;;;;46.60;23.70;;;;;;;;;;740929;187;652717;-87
2022/08/24 07:04:25;;;;;;;36.93;21.67;;;;;;;;;;741627;187;630412;-87
2022/08/24 07:06:51;;;;;;;42.40;23.33;;;;;;;;;;741271;187;623577;-86
2022/08/24 07:09:16;;;;;;;39.23;22.30;;;;;;;;;;744047;187;656968;-89
2022/08/24 07:11:42;;;;;;;43.27;22.90;;;;;;;;;;719727;194;656880;-85
2022/08/24 07:14:08;;;;;;;50.63;23.73;;;;;;;;;;718877;195;720384;-86
2022/08/24 07:16:34;;;;;;;40.00;23.40;;;;;;;;;;743903;188;613968;-86
2022/08/24 07:19:01;;;;;;;48.97;24.20;;;;;;;;;;738717;188;645527;-87
2022/08/24 07:21:27;;;;;;;53.17;25.70;;;;;;;;;;742554;187;633803;-86
2022/08/24 07:23:54;;;;;;;44.83;24.43;;;;;;;;;;746089;187;625141;-88
2022/08/24 07:26:21;;;;;;;42.13;23.70;;;;;;;;;;745086;187;688731;-87
2022/08/24 07:28:45;;;;;;;57.43;28.63;;;;;;;;;;737527;187;669967;-88
2022/08/24 07:31:12;;;;;;;39.27;25.00;;;;;;;;;;740100;187;629186;-87
2022/08/24 07:33:37;;;;;;;49.90;26.00;;;;;;;;;;743882;188;632564;-87
2022/08/24 07:36:03;;;;;;;50.40;26.60;;;;;;;;;;742339;188;637479;-84
2022/08/24 07:38:29;;;;;;;48.50;25.60;;;;;;;;;;739690;188;649989;-86
2022/08/24 07:40:55;;;;;;;55.13;25.90;;;;;;;;;;742094;188;704247;-88
2022/08/24 07:43:21;;;;;;;46.83;25.70;;;;;;;;;;744267;187;632025;-86
2022/08/24 07:45:48;;;;;;;49.97;24.57;;;;;;;;;;743947;187;631756;-86
2022/08/24 07:48:13;;;;;;;52.37;25.63;;;;;;;;;;748395;187;629530;-86
2022/08/24 07:50:39;;;;;;;52.10;25.03;;;;;;;;;;742690;187;902510;-88
2022/08/24 07:53:05;;;;;;;43.83;24.27;;;;;;;;;;741145;187;677195;-86
2022/08/24 07:55:31;;;;;;;58.03;28.40;;;;;;;;;;744973;187;657073;-89
2022/08/24 07:57:58;;;;;;;47.97;27.10;;;;;;;;;;749458;187;631883;-88
2022/08/24 08:00:23;;;;;;;50.97;26.87;;;;;;;;;;744110;188;658257;-89
2022/08/24 08:02:49;;;;;;;49.10;25.90;;;;;;;;;;744628;187;632041;-93
2022/08/24 08:05:14;;;;;;;48.00;26.60;;;;;;;;;;751048;187;629725;-86
2022/08/24 08:07:40;;;;;;;46.60;26.10;;;;;;;;;;740236;188;655300;-88
2022/08/24 08:10:07;;;;;;;54.67;27.20;;;;;;;;;;743975;187;629941;-87
2022/08/24 08:12:34;;;;;;;49.00;26.97;;;;;;;;;;747284;187;712733;-86
2022/08/24 08:14:59;;;;;;;54.60;28.43;;;;;;;;;;739170;187;709319;-87
2022/08/24 08:17:24;;;;;;;50.97;27.47;;;;;;;;;;738768;188;645590;-88
2022/08/24 08:19:50;;;;;;;52.43;28.10;;;;;;;;;;739244;188;666071;-86
2022/08/24 08:24:49;;;;;;;57.13;28.97;;;;;;;;;;745586;187;654864;-84
2022/08/24 08:27:15;;;;;;;51.70;26.90;;;;;;;;;;742496;188;648944;-88
2022/08/24 08:29:40;;;;;;;57.07;28.27;;;;;;;;;;745728;188;642463;-86
2022/08/24 08:32:06;;;;;;;52.97;28.33;;;;;;;;;;736969;187;635665;-85
2022/08/24 08:34:32;;;;;;;51.70;27.80;;;;;;;;;;743286;184;616694;-85
2022/08/24 08:36:57;;;;;;;38.70;23.23;;;;;;;;;;742240;187;625512;-87
2022/08/24 08:39:24;;;;;;;32.70;20.10;;;;;;;;;;742109;188;658995;-85
2022/08/24 08:41:53;;;;;;;37.67;19.40;;;;;;;;;;741907;187;626799;-85
2022/08/24 08:44:20;;;;;;;40.70;18.60;;;;;;;;;;742152;187;773932;-87
2022/08/24 08:46:51;;;;;;;40.10;19.90;;;;;;;;;;742948;188;619749;-86
2022/08/24 08:49:18;;;;;;;37.67;19.03;;;;;;;;;;746673;187;633128;-86
2022/08/24 08:52:00;;;;;;;45.00;21.87;;;;;;;;;;743267;187;626856;-90
2022/08/24 08:54:29;;;;;;;38.87;20.70;;;;;;;;;;731814;187;766877;-89
2022/08/24 08:57:00;;;;;;;34.43;19.93;;;;;;;;;;739738;187;631415;-87
2022/08/24 08:59:31;;;;;;;34.97;18.73;;;;;;;;;;744699;185;645837;-87
2022/08/24 09:02:03;;;;;;;35.63;19.60;;;;;;;;;;746460;187;644296;-86
2022/08/24 09:04:30;;;;;;;37.10;20.20;;;;;;;;;;737913;187;623872;-85
2022/08/24 09:06:56;;;;;;;41.53;20.23;;;;;;;;;;740382;186;636797;-87
2022/08/24 09:09:26;;;;;;;33.60;19.37;;;;;;;;;;738785;186;633123;-84
2022/08/24 09:11:53;;;;;;;43.53;23.07;;;;;;;;;;737733;187;633390;-87
2022/08/24 09:14:25;;;;;;;41.20;22.77;;;;;;;;;;741623;187;625698;-86
2022/08/24 09:16:57;;;;;;;35.50;20.00;;;;;;;;;;738541;188;646543;-87
2022/08/24 09:19:28;;;;;;;39.73;21.87;;;;;;;;;;744937;187;706661;-87
2022/08/24 09:21:56;;;;;;;40.47;22.20;;;;;;;;;;746750;187;673654;-86
2022/08/24 09:24:34;;;;;;;41.90;20.80;;;;;;;;;;744065;187;629348;-86
2022/08/24 09:27:15;;;;;;;51.60;25.57;;;;;;;;;;745413;187;621254;-86
2022/08/24 09:29:56;;;;;;;50.13;24.37;;;;;;;;;;743443;187;624571;-89
2022/08/24 09:32:40;;;;;;;47.37;26.33;;;;;;;;;;742780;188;629265;-87
2022/08/24 09:35:08;;;;;;;51.00;24.40;;;;;;;;;;736841;188;622973;-91
2022/08/24 09:37:35;;;;;;;54.47;25.57;;;;;;;;;;743643;188;635718;-89
2022/08/24 09:40:01;;;;;;;56.77;26.87;;;;;;;;;;744262;185;666329;-87
2022/08/24 09:42:30;;;;;;;51.70;26.10;;;;;;;;;;741049;187;656870;-90
2022/08/24 09:44:56;;;;;;;48.27;25.87;;;;;;;;;;741752;187;711106;-86
2022/08/24 09:47:27;;;;;;;43.03;24.90;;;;;;;;;;745961;187;641070;-88
2022/08/24 09:50:14;;;;;;;45.90;23.63;;;;;;;;;;747357;187;614369;-86
2022/08/24 09:52:46;;;;;;;45.67;24.90;;;;;;;;;;739908;187;637570;-85
2022/08/24 09:55:26;;;;;;;42.83;24.10;;;;;;;;;;745061;187;635752;-87
2022/08/24 09:58:06;;;;;;;44.60;23.83;;;;;;;;;;747956;187;656067;-85
2022/08/24 10:00:33;;;;;;;42.40;23.43;;;;;;;;;;750050;187;647382;-90
2022/08/24 10:03:03;;;;;;;50.57;25.60;;;;;;;;;;740395;186;626525;-87
2022/08/24 10:05:35;;;;;;;53.33;25.37;;;;;;;;;;741473;187;630123;-89
2022/08/24 10:08:15;;;;;;;44.80;25.50;;;;;;;;;;741491;188;629708;-89
2022/08/24 10:10:50;;;;;;;45.73;25.83;;;;;;;;;;732475;189;647043;-86
2022/08/24 10:13:22;;;;;;;45.20;23.30;;;;;;;;;;746013;187;634667;-87
2022/08/24 10:16:04;;;;;;;41.03;25.70;;;;;;;;;;747839;187;615168;-86
2022/08/24 10:18:34;;;;;;;48.77;23.93;;;;;;;;;;746318;186;635279;-86
2022/08/24 10:21:07;;;;;;;35.40;23.20;;;;;;;;;;743212;187;816110;-88
2022/08/24 10:23:36;;;;;;;36.97;22.17;;;;;;;;;;745792;187;613148;-86
2022/08/24 10:26:03;;;;;;;40.33;23.77;;;;;;;;;;741697;187;639257;-86
2022/08/24 10:28:35;;;;;;;43.00;24.60;;;;;;;;;;747667;187;622594;-86
2022/08/24 10:31:06;;;;;;;41.43;23.87;;;;;;;;;;738818;187;771009;-87
2022/08/24 10:33:34;;;;;;;36.33;22.43;;;;;;;;;;739127;186;627226;-86
2022/08/24 10:36:06;;;;;;;38.50;23.70;;;;;;;;;;739844;188;688768;-89
2022/08/24 10:41:29;;;;;;;35.93;20.90;;;;;;;;;;749514;188;824307;-86
2022/08/24 10:44:05;;;;;;;30.17;18.40;;;;;;;;;;736123;187;617051;-85
2022/08/24 10:46:37;;;;;;;33.50;20.97;;;;;;;;;;736832;189;703883;-88
2022/08/24 10:49:18;;;;;;;27.83;20.83;;;;;;;;;;744459;187;633080;-85
2022/08/24 10:51:57;;;;;;;28.90;20.63;;;;;;;;;;733613;188;712461;-88
2022/08/24 10:54:23;;;;;;;26.73;19.10;;;;;;;;;;749148;180;930751;-58
2022/08/24 10:56:55;;;;;;;25.00;17.80;;;;;;;;;;748779;186;926604;-58
2022/08/24 10:59:24;;;;;;;24.50;17.80;;;;;;;;;;752293;183;817396;-58
2022/08/24 11:01:56;;;;;;;26.07;19.67;;;;;;;;;;768089;181;817215;-58
2022/08/24 11:04:26;;;;;;;23.53;16.90;;;;;;;;;;762740;182;919913;-58
2022/08/24 11:06:57;;;;;;;26.27;18.17;;;;;;;;;;765847;183;890311;-58
2022/08/24 11:09:22;;;;;;;27.23;18.30;;;;;;;;;;763315;182;916931;-59
2022/08/24 11:11:48;;;;;;;27.43;18.17;;;;;;;;;;769682;182;918044;-58
2022/08/24 11:14:23;;;;;;;25.13;17.23;;;;;;;;;;766082;183;919536;-58
2022/08/24 11:16:49;;;;;;;21.60;17.30;;;;;;;;;;765371;183;820574;-59
2022/08/24 11:19:30;;;;;;;24.00;17.53;;;;;;;;;;764064;183;919960;-59
2022/08/24 11:21:55;;;;;;;26.20;19.70;;;;;;;;;;765193;182;919826;-59
2022/08/24 11:24:37;;;;;;;23.53;18.00;;;;;;;;;;770509;182;916174;-61
2022/08/24 11:27:05;;;;;;;32.47;19.43;;;;;;;;;;767342;182;847083;-59
2022/08/24 11:29:47;;;;;;;25.97;18.63;;;;;;;;;;764896;182;866983;-59
2022/08/24 11:32:13;;;;;;;27.10;18.80;;;;;;;;;;766636;182;918892;-59
2022/08/24 11:34:39;;;;;;;30.53;22.17;;;;;;;;;;765271;182;920070;-59
2022/08/24 11:37:05;;;;;;;34.07;21.87;;;;;;;;;;769372;182;917938;-59
2022/08/24 11:39:31;;;;;;;36.53;23.90;;;;;;;;;;767543;182;939940;-60
2022/08/24 11:41:57;;;;;;;36.80;24.47;;;;;;;;;;764147;181;919200;-59
2022/08/24 11:44:23;;;;;;;34.20;26.70;;;;;;;;;;767928;183;920055;-59
2022/08/24 11:46:49;;;;;;;39.13;26.57;;;;;;;;;;759750;182;921861;-59
2022/08/24 11:49:21;;;;;;;37.27;24.57;;;;;;;;;;764335;183;920065;-60
2022/08/24 11:51:46;;;;;;;35.90;25.33;;;;;;;;;;764042;182;919471;-59
2022/08/24 11:54:13;;;;;;;37.07;24.30;;;;;;;;;;768943;183;918609;-59
2022/08/24 11:56:49;;;;;;;30.67;23.30;;;;;;;;;;767333;183;921227;-59
2022/08/24 11:59:15;;;;;;;32.97;24.40;;;;;;;;;;766783;183;818634;-58
2022/08/24 12:01:43;;;;;;;41.23;24.63;;;;;;;;;;762383;183;919206;-58
2022/08/24 12:04:10;;;;;;;31.30;22.97;;;;;;;;;;768977;183;918978;-58
2022/08/24 12:06:42;;;;;;;34.77;25.07;;;;;;;;;;758080;183;920108;-59
2022/08/24 12:09:09;;;;;;;39.33;26.42;;;;;;;;;;763832;183;918482;-59
2022/08/24 12:11:39;;;;;;;44.27;28.37;;;;;;;;;;763386;183;921755;-59
2022/08/24 12:14:10;;;;;;;38.63;26.07;;;;;;;;;;769639;183;920334;-58
2022/08/24 12:16:40;;;;;;;38.47;26.37;;;;;;;;;;767948;183;919419;-58
2022/08/24 12:19:08;;;;;;;34.73;25.77;;;;;;;;;;763541;183;915299;-58
2022/08/24 12:21:34;;;;;;;41.10;27.83;;;;;;;;;;765141;183;816872;-59
2022/08/24 12:24:04;;;;;;;38.50;26.57;;;;;;;;;;768163;183;919135;-58
2022/08/24 12:26:32;;;;;;;45.40;29.83;;;;;;;;;;751743;184;918653;-58
2022/08/24 12:29:00;;;;;;;43.23;27.90;;;;;;;;;;764418;183;917965;-59
2022/08/24 12:31:33;;;;;;;43.33;28.00;;;;;;;;;;764971;183;912009;-58
2022/08/24 12:33:59;;;;;;;43.23;27.10;;;;;;;;;;766013;181;945192;-59
2022/08/24 12:36:27;;;;;;;41.90;27.07;;;;;;;;;;765699;182;918478;-59
2022/08/24 12:38:53;;;;;;;33.87;26.00;;;;;;;;;;765588;182;919414;-58
2022/08/24 12:41:18;;;;;;;34.00;24.00;;;;;;;;;;762381;180;919412;-58
2022/08/24 12:43:45;;;;;;;38.73;24.73;;;;;;;;;;769710;182;919523;-59
2022/08/24 12:46:11;;;;;;;38.37;25.37;;;;;;;;;;764610;180;919340;-58
2022/08/24 12:48:38;;;;;;;40.43;25.97;;;;;;;;;;767352;182;820221;-59
2022/08/24 12:51:13;;;;;;;36.50;25.93;;;;;;;;;;770317;182;918406;-58
2022/08/24 12:53:37;;;;;;;37.97;26.20;;;;;;;;;;763005;182;920565;-58
2022/08/24 12:56:09;;;;;;;42.53;26.30;;;;;;;;;;764519;183;920299;-57
2022/08/24 12:58:41;;;;;;;37.83;24.63;;;;;;;;;;764979;182;818232;-58
2022/08/24 13:01:07;;;;;;;38.00;24.97;;;;;;;;;;763733;183;918796;-57
2022/08/24 13:03:33;;;;;;;37.87;25.83;;;;;;;;;;769090;183;920140;-57
2022/08/24 13:05:58;;;;;;;33.53;24.20;;;;;;;;;;766047;183;902614;-57
2022/08/24 13:08:30;;;;;;;31.97;22.70;;;;;;;;;;764845;183;932813;-57
2022/08/24 13:10:59;;;;;;;40.75;23.30;;;;;;;;;;767597;183;918822;-59
2022/08/24 13:13:24;;;;;;;37.23;22.03;;;;;;;;;;767297;182;838923;-58
2022/08/24 13:15:50;;;;;;;40.90;25.97;;;;;;;;;;764649;182;918167;-58
2022/08/24 13:18:31;;;;;;;37.73;23.77;;;;;;;;;;763620;183;919174;-59
2022/08/24 13:20:57;;;;;;;37.05;24.63;;;;;;;;;;762855;182;920852;-60
2022/08/24 13:23:23;;;;;;;36.03;22.00;;;;;;;;;;768808;183;930191;-60
2022/08/24 13:25:51;;;;;;;41.93;23.00;;;;;;;;;;763476;183;916303;-59
2022/08/24 13:28:29;;;;;;;42.67;23.23;;;;;;;;;;763611;180;919071;-59
2022/08/24 13:30:59;;;;;;;36.47;22.90;;;;;;;;;;763111;182;919819;-60
2022/08/24 13:33:40;;;;;;;47.37;25.27;;;;;;;;;;769688;183;903673;-59
2022/08/24 13:36:07;;;;;;;46.30;24.87;;;;;;;;;;763726;183;918789;-59
2022/08/24 13:38:44;;;;;;;53.67;26.70;;;;;;;;;;765036;183;921303;-59
2022/08/24 13:41:12;;;;;;;47.17;27.23;;;;;;;;;;764743;182;920518;-59
2022/08/24 13:43:46;;;;;;;38.97;25.17;;;;;;;;;;763124;183;921004;-59
2022/08/24 13:46:13;;;;;;;40.37;23.57;;;;;;;;;;766858;182;818231;-59
2022/08/24 13:48:56;;;;;;;45.50;25.33;;;;;;;;;;771331;182;817835;-59
2022/08/24 13:51:23;;;;;;;44.40;26.83;;;;;;;;;;755247;185;820388;-58
2022/08/24 13:53:49;;;;;;;51.07;26.00;;;;;;;;;;771205;182;714915;-59
2022/08/24 13:56:20;;;;;;;44.53;24.90;;;;;;;;;;763754;182;1021718;-59
2022/08/24 13:58:46;;;;;;;54.53;26.80;;;;;;;;;;763550;182;996309;-59
2022/08/24 14:01:18;;;;;;;42.20;25.30;;;;;;;;;;771335;182;703505;-59
2022/08/24 14:03:43;;;;;;;45.67;28.53;;;;;;;;;;763798;182;894862;-59
2022/08/24 14:06:15;;;;;;;43.00;25.73;;;;;;;;;;762701;183;919927;-59
2022/08/24 14:08:57;;;;;;;43.97;25.53;;;;;;;;;;764321;182;919306;-59
2022/08/24 14:11:37;;;;;;;50.20;25.60;;;;;;;;;;763785;183;911372;-59
2022/08/24 14:14:03;;;;;;;45.47;26.37;;;;;;;;;;743659;184;920828;-59
2022/08/24 14:19:04;;;;;;;48.30;26.17;;;;;;;;;;762180;183;920184;-59